Time;durP1;ratioP1;P1;durP2;ratioP2;P2;SDS_P1;SDS_P2;PMS_P1;PMS_P2;Temp;Humidity;BMP_temperature;BMP_pressure;BME280_temperature;BME280_humidity;BME280_pressure;Samples;Min_cycle;Max_cycle;Signal;HPM_P1;HPM_P2
2022/08/19 00:00:25;;;;;;;19.83;9.40;;;19.50;99.90;;;;;;5013024;28;20171;-69
2022/08/19 00:02:51;;;;;;;14.13;7.27;;;19.50;99.90;;;;;;5012793;28;20283;-69
2022/08/19 00:05:18;;;;;;;16.23;8.33;;;19.50;99.90;;;;;;5013081;28;20449;-68
2022/08/19 00:07:45;;;;;;;14.33;6.87;;;19.50;99.90;;;;;;5013191;28;20431;-69
2022/08/19 00:10:14;;;;;;;15.50;8.40;;;19.50;99.90;;;;;;5013008;28;20425;-69
2022/08/19 00:12:40;;;;;;;16.50;8.47;;;19.50;99.90;;;;;;5012849;28;20441;-69
2022/08/19 00:15:11;;;;;;;14.13;8.60;;;19.50;99.90;;;;;;5013062;28;20418;-68
2022/08/19 00:17:37;;;;;;;13.13;7.80;;;19.50;99.90;;;;;;5012707;28;20179;-69
2022/08/19 00:20:04;;;;;;;19.67;8.07;;;19.50;99.90;;;;;;5013002;28;20402;-69
2022/08/19 00:22:29;;;;;;;12.10;7.30;;;19.50;99.90;;;;;;5012446;28;20402;-69
2022/08/19 00:24:55;;;;;;;21.40;9.07;;;19.50;99.90;;;;;;5012758;28;20470;-68
2022/08/19 00:27:21;;;;;;;12.80;7.33;;;19.50;99.90;;;;;;5012977;28;20646;-69
2022/08/19 00:29:46;;;;;;;13.07;7.30;;;19.50;99.90;;;;;;5012768;28;20163;-69
2022/08/19 00:32:12;;;;;;;13.43;7.40;;;19.40;99.90;;;;;;5012255;28;20168;-68
2022/08/19 00:34:37;;;;;;;23.53;8.90;;;19.40;99.90;;;;;;5012494;28;20495;-68
2022/08/19 00:37:03;;;;;;;16.33;8.30;;;19.40;99.90;;;;;;5012659;28;20171;-69
2022/08/19 00:39:30;;;;;;;23.07;9.73;;;19.40;99.90;;;;;;5012503;28;20223;-69
2022/08/19 00:41:57;;;;;;;18.10;9.47;;;19.40;99.90;;;;;;5012440;28;20171;-68
2022/08/19 00:44:26;;;;;;;18.47;9.03;;;19.30;99.90;;;;;;5012722;28;20441;-69
2022/08/19 00:46:53;;;;;;;23.50;8.30;;;19.30;99.90;;;;;;5012660;28;20903;-69
2022/08/19 00:49:34;;;;;;;18.13;9.67;;;19.30;99.90;;;;;;5012785;28;20414;-68
2022/08/19 00:52:12;;;;;;;17.33;9.03;;;19.30;99.90;;;;;;5011715;28;20429;-68
2022/08/19 00:54:38;;;;;;;23.47;8.87;;;19.30;99.90;;;;;;5012629;28;20902;-68
2022/08/19 00:57:07;;;;;;;24.70;8.93;;;19.20;99.90;;;;;;5012594;28;20418;-68
2022/08/19 00:59:36;;;;;;;16.63;8.33;;;19.20;99.90;;;;;;5012753;28;20458;-68
2022/08/19 01:02:02;;;;;;;26.03;10.73;;;19.10;99.90;;;;;;5012067;28;20526;-68
2022/08/19 01:04:28;;;;;;;20.03;9.20;;;19.10;99.90;;;;;;5012168;28;20418;-68
2022/08/19 01:06:53;;;;;;;20.97;10.53;;;19.00;99.90;;;;;;5012378;28;20179;-68
2022/08/19 01:09:19;;;;;;;28.23;10.23;;;19.00;99.90;;;;;;5012139;28;20171;-68
2022/08/19 01:11:45;;;;;;;21.87;10.30;;;18.90;99.90;;;;;;5011627;28;20241;-68
2022/08/19 01:14:12;;;;;;;19.70;10.87;;;18.90;99.90;;;;;;5012415;28;20662;-68
2022/08/19 01:16:40;;;;;;;28.03;11.70;;;18.90;99.90;;;;;;5012178;28;20210;-68
2022/08/19 01:19:24;;;;;;;17.60;9.20;;;18.80;99.90;;;;;;5012274;28;20985;-68
2022/08/19 01:22:08;;;;;;;19.40;10.00;;;18.80;99.90;;;;;;5011439;28;20391;-68
2022/08/19 01:24:33;;;;;;;22.40;9.90;;;18.80;99.90;;;;;;5012135;28;20426;-68
2022/08/19 01:26:59;;;;;;;25.70;9.97;;;18.80;99.90;;;;;;5012100;28;20414;-68
2022/08/19 01:29:25;;;;;;;23.30;10.57;;;18.80;99.90;;;;;;5012595;28;20218;-68
2022/08/19 01:31:52;;;;;;;22.00;10.93;;;18.80;99.90;;;;;;5011592;28;20175;-68
2022/08/19 01:34:18;;;;;;;20.37;11.20;;;18.80;99.90;;;;;;5011961;28;20179;-68
2022/08/19 01:36:47;;;;;;;27.57;10.90;;;18.70;99.90;;;;;;5011929;28;20437;-68
2022/08/19 01:39:22;;;;;;;24.87;10.43;;;18.70;99.90;;;;;;5011939;28;20961;-68
2022/08/19 01:41:48;;;;;;;27.77;12.30;;;18.70;99.90;;;;;;5011394;28;20449;-68
2022/08/19 01:44:15;;;;;;;21.80;9.97;;;18.70;99.90;;;;;;5012081;28;20460;-67
2022/08/19 01:46:42;;;;;;;28.70;11.37;;;18.60;99.90;;;;;;5012596;28;20410;-68
2022/08/19 01:49:08;;;;;;;23.83;9.87;;;18.60;99.90;;;;;;5015593;28;20421;-68
2022/08/19 01:51:35;;;;;;;24.80;13.37;;;18.60;99.90;;;;;;5014391;28;20420;-66
2022/08/19 01:54:01;;;;;;;22.20;11.60;;;18.50;99.90;;;;;;5015544;28;20449;-67
2022/08/19 01:56:26;;;;;;;21.70;10.20;;;18.50;99.90;;;;;;5015368;28;20445;-66
2022/08/19 01:59:07;;;;;;;23.73;11.67;;;18.50;99.90;;;;;;5015458;28;20653;-66
2022/08/19 02:01:34;;;;;;;24.23;12.20;;;18.50;99.90;;;;;;5015061;28;20179;-67
2022/08/19 02:04:02;;;;;;;18.17;9.50;;;18.50;99.90;;;;;;5015403;28;20410;-66
2022/08/19 02:06:28;;;;;;;18.03;10.50;;;18.50;99.90;;;;;;5015369;28;20410;-66
2022/08/19 02:08:54;;;;;;;23.40;12.20;;;18.50;99.90;;;;;;5015313;28;20422;-66
2022/08/19 02:11:26;;;;;;;25.17;11.73;;;18.40;99.90;;;;;;5014571;28;20179;-66
2022/08/19 02:13:53;;;;;;;18.23;10.47;;;18.40;99.90;;;;;;5015155;28;20418;-66
2022/08/19 02:16:19;;;;;;;21.63;11.17;;;18.40;99.90;;;;;;5015125;28;20509;-67
2022/08/19 02:18:48;;;;;;;23.93;11.73;;;18.40;99.90;;;;;;5015295;28;20457;-66
2022/08/19 02:21:15;;;;;;;24.50;10.97;;;18.40;99.90;;;;;;5014702;28;20468;-66
2022/08/19 02:23:41;;;;;;;23.20;12.07;;;18.40;99.90;;;;;;5015244;28;20418;-66
2022/08/19 02:26:07;;;;;;;22.30;11.37;;;18.40;99.90;;;;;;5015013;28;20522;-66
2022/08/19 02:28:33;;;;;;;26.27;11.90;;;18.40;99.90;;;;;;5015005;28;20665;-66
2022/08/19 02:31:00;;;;;;;25.67;12.03;;;18.30;99.90;;;;;;5014876;28;20187;-66
2022/08/19 02:33:26;;;;;;;25.67;11.60;;;18.40;99.90;;;;;;5015246;28;20785;-66
2022/08/19 02:35:52;;;;;;;24.17;10.47;;;18.40;99.90;;;;;;5015173;28;20416;-66
2022/08/19 02:38:26;;;;;;;25.23;12.77;;;18.40;99.90;;;;;;5014772;28;20807;-67
2022/08/19 02:41:03;;;;;;;26.93;12.43;;;18.30;99.90;;;;;;5014857;28;20198;-66
2022/08/19 02:43:30;;;;;;;30.77;12.97;;;18.30;99.90;;;;;;5014618;28;20934;-66
2022/08/19 02:45:56;;;;;;;23.97;11.47;;;18.30;99.90;;;;;;5014882;28;20874;-66
2022/08/19 02:48:24;;;;;;;21.50;11.20;;;18.30;99.90;;;;;;5014727;28;20426;-66
2022/08/19 02:50:54;;;;;;;20.53;10.70;;;18.30;99.90;;;;;;5013666;28;20615;-69
2022/08/19 02:53:22;;;;;;;26.00;9.87;;;18.20;99.90;;;;;;5014208;28;20434;-67
2022/08/19 02:55:48;;;;;;;29.60;12.63;;;18.20;99.90;;;;;;5014392;28;21064;-67
2022/08/19 02:58:15;;;;;;;23.00;11.30;;;18.20;99.90;;;;;;5014064;28;20592;-66
2022/08/19 03:00:46;;;;;;;24.17;10.77;;;18.20;99.90;;;;;;5014722;28;20421;-67
2022/08/19 03:03:12;;;;;;;23.73;12.60;;;18.20;99.90;;;;;;5014019;28;20402;-66
2022/08/19 03:05:38;;;;;;;24.67;12.27;;;18.20;99.90;;;;;;5014231;28;20421;-66
2022/08/19 03:08:05;;;;;;;21.20;10.37;;;18.20;99.90;;;;;;5014162;28;20183;-67
2022/08/19 03:10:32;;;;;;;25.33;12.10;;;18.20;99.90;;;;;;5014205;28;20414;-66
2022/08/19 03:12:57;;;;;;;21.50;11.90;;;18.20;99.90;;;;;;5013460;28;20437;-66
2022/08/19 03:15:23;;;;;;;25.50;13.20;;;18.20;99.90;;;;;;5014064;28;20426;-66
2022/08/19 03:17:49;;;;;;;23.20;12.07;;;18.20;99.90;;;;;;5013977;28;20199;-68
2022/08/19 03:20:14;;;;;;;25.50;12.80;;;18.20;99.90;;;;;;5014168;28;20638;-67
2022/08/19 03:22:40;;;;;;;23.07;10.70;;;18.20;99.90;;;;;;5013597;28;20655;-67
2022/08/19 03:25:05;;;;;;;24.10;12.77;;;18.10;99.90;;;;;;5013850;28;20218;-67
2022/08/19 03:27:31;;;;;;;23.40;11.60;;;18.20;99.90;;;;;;5013725;28;20179;-67
2022/08/19 03:29:57;;;;;;;28.03;12.37;;;18.20;99.90;;;;;;5013940;28;20636;-67
2022/08/19 03:32:22;;;;;;;20.03;11.03;;;18.20;99.90;;;;;;5013280;28;20702;-67
2022/08/19 03:34:49;;;;;;;22.83;11.77;;;18.20;99.90;;;;;;5013737;28;20176;-67
2022/08/19 03:37:14;;;;;;;24.07;12.90;;;18.10;99.90;;;;;;5013683;28;20571;-67
2022/08/19 03:39:41;;;;;;;25.17;12.67;;;18.10;99.90;;;;;;5013771;28;20738;-67
2022/08/19 03:42:08;;;;;;;23.40;10.97;;;18.10;99.90;;;;;;5013081;28;20659;-67
2022/08/19 03:44:37;;;;;;;23.13;12.70;;;18.10;99.90;;;;;;5013379;28;20429;-67
2022/08/19 03:47:03;;;;;;;21.13;12.37;;;18.10;99.90;;;;;;5013454;28;20501;-67
2022/08/19 03:49:32;;;;;;;22.60;12.03;;;18.10;99.90;;;;;;5013784;28;20520;-67
2022/08/19 03:52:00;;;;;;;30.70;14.37;;;18.10;99.90;;;;;;5012050;28;20422;-67
2022/08/19 03:54:27;;;;;;;25.17;13.30;;;18.10;99.90;;;;;;5013540;28;20414;-67
2022/08/19 03:56:54;;;;;;;25.40;13.10;;;18.10;99.90;;;;;;5013406;28;20422;-67
2022/08/19 03:59:30;;;;;;;24.83;13.73;;;18.10;99.90;;;;;;5013314;28;20469;-67
2022/08/19 04:01:57;;;;;;;32.50;14.67;;;18.10;99.90;;;;;;5013206;28;20414;-67
2022/08/19 04:04:23;;;;;;;25.63;14.10;;;18.10;99.90;;;;;;5013648;28;20528;-67
2022/08/19 04:06:51;;;;;;;30.00;15.50;;;18.10;99.90;;;;;;5013877;28;20560;-67
2022/08/19 04:09:18;;;;;;;30.73;14.50;;;18.10;99.90;;;;;;5012465;28;20176;-67
2022/08/19 04:11:47;;;;;;;27.87;14.00;;;18.10;99.90;;;;;;5012739;28;20426;-67
2022/08/19 04:14:17;;;;;;;29.73;14.17;;;18.10;99.90;;;;;;5013180;28;20418;-67
2022/08/19 04:16:44;;;;;;;22.50;11.37;;;18.20;99.90;;;;;;5013254;28;20422;-67
2022/08/19 04:19:10;;;;;;;34.50;15.53;;;18.20;99.90;;;;;;5012911;28;20540;-67
2022/08/19 04:21:36;;;;;;;26.77;14.93;;;18.10;99.90;;;;;;5012689;28;20770;-67
2022/08/19 04:24:02;;;;;;;27.73;12.07;;;18.10;99.90;;;;;;5012875;28;20502;-67
2022/08/19 04:26:33;;;;;;;29.13;14.17;;;18.10;99.90;;;;;;5012957;28;20179;-67
2022/08/19 04:29:00;;;;;;;28.47;14.70;;;18.10;99.90;;;;;;5012861;28;20867;-67
2022/08/19 04:31:28;;;;;;;32.50;14.53;;;18.10;99.90;;;;;;5012572;28;20418;-67
2022/08/19 04:33:56;;;;;;;32.37;15.10;;;18.10;99.90;;;;;;5012661;28;20453;-67
2022/08/19 04:36:25;;;;;;;30.87;14.90;;;18.10;99.90;;;;;;5012726;28;20952;-67
2022/08/19 04:38:55;;;;;;;37.87;14.40;;;18.10;99.90;;;;;;5012635;28;20552;-68
2022/08/19 04:44:05;;;;;;;30.40;14.53;;;18.10;99.90;;;;;;5012549;28;20408;-67
2022/08/19 04:46:31;;;;;;;30.83;14.63;;;18.10;99.90;;;;;;5012909;28;20409;-67
2022/08/19 04:48:58;;;;;;;31.97;15.20;;;18.10;99.90;;;;;;5012372;28;20186;-68
2022/08/19 04:51:24;;;;;;;28.60;14.90;;;18.10;99.90;;;;;;5011267;28;20480;-67
2022/08/19 04:53:52;;;;;;;30.33;14.33;;;18.10;99.90;;;;;;5012477;28;20771;-67
2022/08/19 04:56:22;;;;;;;28.63;12.47;;;18.10;99.90;;;;;;5004467;28;20180;-68
2022/08/19 04:58:51;;;;;;;30.87;13.97;;;18.10;99.90;;;;;;4992745;28;20454;-67
2022/08/19 05:01:26;;;;;;;26.97;14.90;;;18.20;99.90;;;;;;4992335;28;20868;-67
2022/08/19 05:03:52;;;;;;;29.10;15.20;;;18.20;99.90;;;;;;4992776;28;20426;-68
2022/08/19 05:06:20;;;;;;;29.20;14.50;;;18.20;99.90;;;;;;4992994;28;20411;-67
2022/08/19 05:08:47;;;;;;;29.93;14.60;;;18.20;99.90;;;;;;4992634;28;20183;-67
2022/08/19 05:11:13;;;;;;;30.10;15.30;;;18.20;99.90;;;;;;4992341;28;20419;-67
2022/08/19 05:13:39;;;;;;;29.73;14.50;;;18.20;99.90;;;;;;4992446;28;20445;-67
2022/08/19 05:16:05;;;;;;;27.80;15.23;;;18.20;99.90;;;;;;4992810;28;20671;-67
2022/08/19 05:24:08;;;;;;;36.87;14.43;;;18.30;99.90;;;;;;5011953;28;20417;-68
2022/08/19 05:26:35;;;;;;;34.90;16.03;;;18.30;99.90;;;;;;5016374;28;20395;-67
2022/08/19 05:29:01;;;;;;;27.93;13.43;;;18.30;99.90;;;;;;5016247;28;20921;-67
2022/08/19 05:31:27;;;;;;;31.40;14.90;;;18.30;99.90;;;;;;5015928;28;20410;-68
2022/08/19 05:33:52;;;;;;;33.80;14.60;;;18.30;99.90;;;;;;5016276;28;20422;-67
2022/08/19 05:36:19;;;;;;;40.83;16.30;;;18.30;99.90;;;;;;5016185;28;20240;-67
2022/08/19 05:38:45;;;;;;;27.37;13.47;;;18.30;99.90;;;;;;5015940;28;20586;-67
2022/08/19 05:41:12;;;;;;;29.30;14.43;;;18.40;99.90;;;;;;5015642;28;20493;-68
2022/08/19 05:43:38;;;;;;;30.73;14.00;;;18.30;99.90;;;;;;5016030;28;20181;-68
2022/08/19 05:46:05;;;;;;;28.33;13.10;;;18.40;99.90;;;;;;5014659;28;20891;-67
2022/08/19 05:48:32;;;;;;;30.13;15.50;;;18.30;99.90;;;;;;5015767;28;20663;-67
2022/08/19 05:50:59;;;;;;;27.03;14.33;;;18.40;99.90;;;;;;5014286;28;20460;-67
2022/08/19 05:53:25;;;;;;;33.60;16.07;;;18.40;99.90;;;;;;5015673;28;20409;-67
2022/08/19 05:55:51;;;;;;;36.37;14.97;;;18.40;99.90;;;;;;5015635;28;20449;-68
2022/08/19 05:58:17;;;;;;;26.37;11.50;;;18.40;99.90;;;;;;5015512;28;20198;-67
2022/08/19 06:00:43;;;;;;;33.50;13.80;;;18.40;99.90;;;;;;5015096;28;20538;-68
2022/08/19 06:03:09;;;;;;;26.50;12.73;;;18.40;99.90;;;;;;5014545;28;20448;-68
2022/08/19 06:05:35;;;;;;;25.50;13.97;;;18.40;99.90;;;;;;5015458;28;20410;-68
2022/08/19 06:08:01;;;;;;;28.80;14.00;;;18.50;99.90;;;;;;5015409;28;20786;-67
2022/08/19 06:10:27;;;;;;;27.13;14.10;;;18.40;99.90;;;;;;5015288;28;20591;-67
2022/08/19 06:12:54;;;;;;;33.90;14.97;;;18.40;99.90;;;;;;5014722;28;20696;-67
2022/08/19 06:15:20;;;;;;;28.83;13.27;;;18.40;99.90;;;;;;5015188;28;20420;-68
2022/08/19 06:17:46;;;;;;;23.60;12.30;;;18.40;99.90;;;;;;5014848;28;20428;-68
2022/08/19 06:20:14;;;;;;;27.73;13.60;;;18.40;99.90;;;;;;5015142;28;20497;-68
2022/08/19 06:22:40;;;;;;;28.90;14.13;;;18.50;99.90;;;;;;5014672;28;20163;-67
2022/08/19 06:25:08;;;;;;;27.33;13.27;;;18.50;99.90;;;;;;5015117;28;20441;-67
2022/08/19 06:27:34;;;;;;;25.17;13.63;;;18.50;99.90;;;;;;5015048;28;20406;-67
2022/08/19 06:30:01;;;;;;;26.60;14.83;;;18.50;99.90;;;;;;5014879;28;20433;-67
2022/08/19 06:32:27;;;;;;;29.27;14.90;;;18.50;99.90;;;;;;5013675;28;20419;-68
2022/08/19 06:34:52;;;;;;;29.47;14.27;;;18.50;99.90;;;;;;5014904;28;20936;-67
2022/08/19 06:37:18;;;;;;;32.40;13.97;;;18.50;99.90;;;;;;5014686;28;20590;-68
2022/08/19 06:39:44;;;;;;;22.47;12.77;;;18.50;99.90;;;;;;5014777;28;20521;-67
2022/08/19 06:42:12;;;;;;;27.50;14.90;;;18.50;99.90;;;;;;5014337;28;20171;-67
2022/08/19 06:44:40;;;;;;;24.57;13.10;;;18.50;99.90;;;;;;5014663;28;20417;-67
2022/08/19 06:47:08;;;;;;;26.50;13.77;;;18.50;99.90;;;;;;5014691;28;21323;-67
2022/08/19 06:49:35;;;;;;;29.97;15.40;;;18.60;99.90;;;;;;5014601;28;20771;-67
2022/08/19 06:52:02;;;;;;;24.33;13.30;;;18.60;99.90;;;;;;5013132;28;20410;-68
2022/08/19 06:54:29;;;;;;;26.83;13.47;;;18.60;99.90;;;;;;5014546;28;20498;-67
2022/08/19 06:56:56;;;;;;;23.90;13.97;;;18.70;99.90;;;;;;5001388;28;20481;-67
2022/08/19 06:59:26;;;;;;;28.50;14.07;;;18.70;99.90;;;;;;4993588;28;20462;-67
2022/08/19 07:01:55;;;;;;;20.90;11.17;;;18.70;99.90;;;;;;4994632;28;20395;-67
2022/08/19 07:04:27;;;;;;;22.53;13.23;;;18.70;99.90;;;;;;4994698;28;20409;-68
2022/08/19 07:07:23;;;;;;;19.53;11.30;;;18.80;99.90;;;;;;4994598;28;20426;-68
2022/08/19 07:09:52;;;;;;;26.13;12.23;;;18.80;99.90;;;;;;4993704;28;20483;-67
2022/08/19 07:12:18;;;;;;;24.30;12.93;;;18.80;99.90;;;;;;4994160;28;20726;-67
2022/08/19 07:14:45;;;;;;;22.70;11.87;;;18.80;99.90;;;;;;4994471;28;20437;-67
2022/08/19 07:17:12;;;;;;;32.47;12.57;;;18.90;99.90;;;;;;4994698;28;20210;-68
2022/08/19 07:19:39;;;;;;;26.67;11.67;;;18.90;99.90;;;;;;4994077;28;20450;-67
2022/08/19 07:22:06;;;;;;;26.40;11.70;;;19.00;99.90;;;;;;4994114;28;20411;-67
2022/08/19 07:24:32;;;;;;;23.23;11.60;;;19.00;99.90;;;;;;5013339;28;20927;-67
2022/08/19 07:27:02;;;;;;;24.77;11.43;;;19.10;99.90;;;;;;5014017;28;20410;-67
2022/08/19 07:29:30;;;;;;;30.97;12.83;;;19.20;99.90;;;;;;5013770;28;20422;-67
2022/08/19 07:31:58;;;;;;;25.33;11.23;;;19.30;99.90;;;;;;5013265;28;20420;-68
2022/08/19 07:34:25;;;;;;;27.83;12.43;;;19.40;99.90;;;;;;5013587;28;20417;-67
2022/08/19 07:36:51;;;;;;;20.40;11.33;;;19.40;99.90;;;;;;5013589;28;20410;-67
2022/08/19 07:39:21;;;;;;;22.97;11.23;;;19.40;99.90;;;;;;5013793;28;20458;-67
2022/08/19 07:41:46;;;;;;;33.63;12.90;;;19.30;99.90;;;;;;5013139;28;20782;-67
2022/08/19 07:44:13;;;;;;;21.37;11.03;;;19.40;99.90;;;;;;5012464;28;20414;-67
2022/08/19 07:46:41;;;;;;;22.20;11.27;;;19.40;99.90;;;;;;5013356;28;20667;-67
2022/08/19 07:49:08;;;;;;;19.30;11.30;;;19.40;99.90;;;;;;5013421;28;20406;-66
2022/08/19 07:51:35;;;;;;;19.50;10.57;;;19.40;99.90;;;;;;5011737;28;20807;-67
2022/08/19 07:54:01;;;;;;;20.37;11.80;;;19.30;99.90;;;;;;5013630;28;20742;-67
2022/08/19 07:56:26;;;;;;;23.80;11.50;;;19.30;99.90;;;;;;5013379;28;20414;-67
2022/08/19 07:58:53;;;;;;;28.23;13.83;;;19.40;99.90;;;;;;5013209;28;20209;-67
2022/08/19 08:01:23;;;;;;;19.20;10.87;;;19.30;99.90;;;;;;5012888;28;20168;-67
2022/08/19 08:09:38;;;;;;;27.33;11.90;;;19.20;99.90;;;;;;5012937;28;20445;-67
2022/08/19 08:12:07;;;;;;;20.43;12.03;;;19.20;99.90;;;;;;5012625;28;20520;-67
2022/08/19 08:14:41;;;;;;;18.70;12.17;;;19.20;99.90;;;;;;5013055;28;20919;-67
2022/08/19 08:17:09;;;;;;;19.73;11.43;;;19.10;99.90;;;;;;5012767;28;20414;-67
2022/08/19 08:19:35;;;;;;;33.33;12.10;;;19.10;99.90;;;;;;5012823;28;20537;-67
2022/08/19 08:22:02;;;;;;;23.57;11.73;;;19.00;99.90;;;;;;5012572;28;20410;-67
2022/08/19 08:24:30;;;;;;;22.77;11.43;;;19.00;99.90;;;;;;5012969;28;20426;-67
2022/08/19 08:26:58;;;;;;;20.30;11.60;;;19.00;99.90;;;;;;5012899;28;20460;-67
2022/08/19 08:29:25;;;;;;;25.63;11.77;;;19.00;99.90;;;;;;5012952;28;20445;-68
2022/08/19 08:31:51;;;;;;;20.97;10.67;;;19.00;99.90;;;;;;5012525;28;20417;-67
2022/08/19 08:34:17;;;;;;;24.10;12.37;;;19.00;99.90;;;;;;5012838;28;20410;-67
2022/08/19 08:36:45;;;;;;;23.63;12.43;;;19.00;99.90;;;;;;5013017;28;20866;-67
2022/08/19 08:39:13;;;;;;;26.80;11.93;;;19.00;99.90;;;;;;5012843;28;20231;-67
2022/08/19 08:42:00;;;;;;;25.10;11.13;;;18.90;99.90;;;;;;5012013;28;20891;-67
2022/08/19 08:44:49;;;;;;;22.73;10.70;;;18.90;99.90;;;;;;5012923;28;20493;-67
2022/08/19 08:47:18;;;;;;;25.70;12.40;;;18.90;99.90;;;;;;5012626;28;20437;-68
2022/08/19 08:49:59;;;;;;;27.53;11.77;;;18.90;99.90;;;;;;5012658;28;20418;-68
2022/08/19 08:52:35;;;;;;;19.93;11.13;;;19.00;99.90;;;;;;5010941;28;20430;-67
2022/08/19 08:55:08;;;;;;;20.73;11.67;;;19.00;99.90;;;;;;5012505;28;20399;-67
2022/08/19 08:57:42;;;;;;;22.87;12.60;;;19.00;99.90;;;;;;5012815;28;20426;-67
2022/08/19 09:00:15;;;;;;;22.60;11.30;;;19.00;99.90;;;;;;5012578;28;20502;-67
2022/08/19 09:02:40;;;;;;;25.27;11.67;;;19.00;99.90;;;;;;5012098;28;20408;-67
2022/08/19 09:05:09;;;;;;;19.33;10.93;;;19.00;99.90;;;;;;5012340;28;20411;-67
2022/08/19 09:07:53;;;;;;;24.50;10.63;;;19.00;99.90;;;;;;5012495;28;20170;-68
2022/08/19 09:10:42;;;;;;;22.40;9.60;;;19.10;99.90;;;;;;5012411;28;20452;-67
2022/08/19 09:13:20;;;;;;;23.73;11.63;;;19.10;99.90;;;;;;5011838;28;20430;-68
2022/08/19 09:16:01;;;;;;;23.73;11.10;;;19.20;99.90;;;;;;5012214;28;20403;-68
2022/08/19 09:18:43;;;;;;;20.70;9.53;;;19.30;99.90;;;;;;5012237;28;20941;-67
2022/08/19 09:21:09;;;;;;;22.93;10.47;;;19.40;99.90;;;;;;5011745;28;20394;-67
2022/08/19 09:23:36;;;;;;;17.80;10.53;;;19.50;99.90;;;;;;5012188;28;20782;-67
2022/08/19 09:26:07;;;;;;;19.10;10.27;;;19.50;99.90;;;;;;5011939;28;20819;-67
2022/08/19 09:28:33;;;;;;;25.10;11.80;;;19.50;99.90;;;;;;5012137;28;20441;-67
2022/08/19 09:30:58;;;;;;;22.77;11.97;;;19.50;99.90;;;;;;5011753;28;20820;-67
2022/08/19 09:33:24;;;;;;;19.20;10.80;;;19.60;99.90;;;;;;5012015;28;20678;-67
2022/08/19 09:35:50;;;;;;;17.20;9.70;;;19.60;99.90;;;;;;5011871;28;20177;-68
2022/08/19 09:38:15;;;;;;;17.37;10.10;;;19.70;99.90;;;;;;5011731;28;20202;-67
2022/08/19 09:40:41;;;;;;;22.57;11.63;;;19.80;99.90;;;;;;5010499;28;20217;-67
2022/08/19 09:43:08;;;;;;;31.00;11.13;;;19.80;99.90;;;;;;5011682;28;20182;-67
2022/08/19 09:45:34;;;;;;;18.30;9.97;;;19.70;99.90;;;;;;5011939;28;20164;-67
2022/08/19 09:48:00;;;;;;;31.07;13.17;;;19.70;99.90;;;;;;5011924;28;20407;-66
2022/08/19 09:50:25;;;;;;;19.40;9.63;;;19.70;99.90;;;;;;5011880;28;20414;-66
2022/08/19 09:52:52;;;;;;;20.77;10.50;;;19.60;99.90;;;;;;5010416;28;20178;-66
2022/08/19 09:55:18;;;;;;;17.57;10.20;;;19.60;99.90;;;;;;5011962;28;20210;-66
2022/08/19 09:57:43;;;;;;;18.10;9.97;;;19.60;99.90;;;;;;5011932;28;20406;-67
2022/08/19 10:00:10;;;;;;;16.50;9.87;;;19.60;99.90;;;;;;5012132;28;20506;-66
2022/08/19 10:02:36;;;;;;;30.87;10.43;;;19.60;99.90;;;;;;5011604;28;20178;-67
2022/08/19 10:07:46;;;;;;;15.77;10.07;;;19.70;99.90;;;;;;5012638;28;20409;-66
2022/08/19 10:10:12;;;;;;;21.50;9.53;;;19.70;99.90;;;;;;5015524;28;20991;-67
2022/08/19 10:12:38;;;;;;;18.33;9.57;;;19.70;99.90;;;;;;5014868;28;20483;-66
2022/08/19 10:15:05;;;;;;;19.63;9.67;;;19.70;99.90;;;;;;5015498;28;20616;-69
2022/08/19 10:17:33;;;;;;;16.90;9.33;;;19.70;99.90;;;;;;5015066;28;20175;-69
2022/08/19 10:19:59;;;;;;;23.93;9.17;;;19.80;99.90;;;;;;5015119;28;20461;-69
2022/08/19 10:22:25;;;;;;;19.20;9.70;;;19.80;99.90;;;;;;5014510;28;20537;-69
2022/08/19 10:24:51;;;;;;;23.43;9.73;;;19.90;99.90;;;;;;5015173;28;20897;-69
2022/08/19 10:27:17;;;;;;;22.17;11.00;;;19.90;99.90;;;;;;5014990;28;20170;-67
2022/08/19 10:29:43;;;;;;;15.00;8.53;;;19.90;99.90;;;;;;5014993;28;20418;-67
2022/08/19 10:32:09;;;;;;;21.93;9.30;;;20.00;99.90;;;;;;5014593;28;20675;-69
2022/08/19 10:34:37;;;;;;;14.40;7.97;;;20.00;99.90;;;;;;5014752;28;20422;-68
2022/08/19 10:37:07;;;;;;;16.43;8.23;;;20.00;99.90;;;;;;5014560;28;20422;-69
2022/08/19 10:39:35;;;;;;;17.40;7.70;;;20.10;99.90;;;;;;5014802;28;20458;-68
2022/08/19 10:42:10;;;;;;;11.47;7.40;;;20.20;99.90;;;;;;5014202;28;20410;-68
2022/08/19 10:44:36;;;;;;;20.80;8.17;;;20.20;99.90;;;;;;5014554;28;20445;-68
2022/08/19 10:47:03;;;;;;;20.83;8.90;;;20.30;99.90;;;;;;5014631;28;20438;-68
2022/08/19 10:49:29;;;;;;;12.63;6.87;;;20.30;99.90;;;;;;5014802;28;20183;-68
2022/08/19 10:57:28;;;;;;;12.23;7.07;;;20.30;99.90;;;;;;5014589;28;20468;-68
2022/08/19 10:59:55;;;;;;;14.93;7.70;;;20.30;99.90;;;;;;5014368;28;20457;-69
2022/08/19 11:02:22;;;;;;;16.10;8.40;;;20.40;99.90;;;;;;5013871;28;20933;-68
2022/08/19 11:04:49;;;;;;;8.60;5.67;;;20.40;99.90;;;;;;5014206;28;20775;-68
2022/08/19 11:07:15;;;;;;;10.80;6.53;;;20.50;99.90;;;;;;5014107;28;20468;-68
2022/08/19 11:09:42;;;;;;;24.10;6.77;;;20.50;99.90;;;;;;5014026;28;20977;-68
2022/08/19 11:12:09;;;;;;;13.73;6.63;;;20.60;99.90;;;;;;5013564;28;20211;-69
2022/08/19 11:14:36;;;;;;;13.70;7.23;;;20.60;99.90;;;;;;5014169;28;20410;-69
2022/08/19 11:17:03;;;;;;;11.20;6.50;;;20.70;99.90;;;;;;5014124;28;20441;-68
2022/08/19 11:19:29;;;;;;;16.00;7.90;;;20.80;99.90;;;;;;5013898;28;20490;-69
2022/08/19 11:21:54;;;;;;;11.03;6.73;;;20.90;99.90;;;;;;5013475;28;20898;-68
2022/08/19 11:24:23;;;;;;;12.30;6.43;;;20.90;99.90;;;;;;5013909;28;20508;-69
2022/08/19 11:26:51;;;;;;;9.90;6.67;;;20.90;99.90;;;;;;5014078;28;20175;-69
2022/08/19 11:29:19;;;;;;;11.40;6.73;;;21.00;99.90;;;;;;5013964;28;20418;-69
2022/08/19 11:31:47;;;;;;;12.23;6.93;;;21.00;99.90;;;;;;5013476;28;20883;-68
2022/08/19 11:34:17;;;;;;;9.70;6.00;;;21.00;99.90;;;;;;5013868;28;20418;-68
2022/08/19 11:36:45;;;;;;;13.93;6.40;;;21.10;99.90;;;;;;5013908;28;20418;-69
2022/08/19 11:39:14;;;;;;;14.00;6.13;;;21.00;99.90;;;;;;5013671;28;20462;-68
2022/08/19 11:41:40;;;;;;;12.33;6.93;;;21.00;99.90;;;;;;5013405;28;20963;-68
2022/08/19 11:44:07;;;;;;;13.77;6.60;;;21.00;99.90;;;;;;5013640;28;20411;-69
2022/08/19 11:46:35;;;;;;;14.80;6.37;;;21.00;99.90;;;;;;5013648;28;20171;-68
2022/08/19 11:49:02;;;;;;;13.90;5.90;;;21.00;99.90;;;;;;5013360;28;20457;-68
2022/08/19 11:51:29;;;;;;;10.17;6.20;;;20.90;99.90;;;;;;5012372;28;20464;-68
2022/08/19 11:53:56;;;;;;;10.27;5.43;;;20.90;99.90;;;;;;5013435;28;20461;-68
2022/08/19 11:56:23;;;;;;;9.30;6.00;;;20.90;99.90;;;;;;5013426;28;20440;-68
2022/08/19 11:58:50;;;;;;;9.03;5.43;;;21.00;99.90;;;;;;5013103;28;20549;-69
2022/08/19 12:01:18;;;;;;;9.47;5.23;;;21.00;99.90;;;;;;5012477;28;21066;-68
2022/08/19 12:03:45;;;;;;;11.80;6.50;;;21.00;99.90;;;;;;5013284;28;20453;-68
2022/08/19 12:06:15;;;;;;;8.33;5.07;;;21.00;99.90;;;;;;5013066;28;20410;-69
2022/08/19 12:08:42;;;;;;;10.17;5.60;;;21.00;99.90;;;;;;5013045;28;20552;-69
2022/08/19 12:11:09;;;;;;;10.40;5.07;;;21.00;99.90;;;;;;5012626;28;20453;-69
2022/08/19 12:13:36;;;;;;;13.30;6.20;;;21.00;99.90;;;;;;5012788;28;20525;-69
2022/08/19 12:16:09;;;;;;;8.43;4.80;;;21.10;99.90;;;;;;5012993;28;20425;-69
2022/08/19 12:18:35;;;;;;;6.83;4.00;;;21.10;99.90;;;;;;5012949;28;21091;-68
2022/08/19 12:21:01;;;;;;;11.67;5.27;;;21.10;99.90;;;;;;5012699;28;20417;-68
2022/08/19 12:23:26;;;;;;;14.63;5.60;;;21.10;99.90;;;;;;5012758;28;20175;-69
2022/08/19 12:25:52;;;;;;;11.00;5.83;;;21.10;99.90;;;;;;5012741;28;20402;-68
2022/08/19 12:28:20;;;;;;;9.77;5.57;;;21.10;99.90;;;;;;5012642;28;20179;-69
2022/08/19 12:30:46;;;;;;;11.40;4.33;;;21.20;99.90;;;;;;5012209;28;20186;-69
2022/08/19 12:33:13;;;;;;;13.03;4.80;;;21.20;99.90;;;;;;5012409;28;20771;-69
2022/08/19 12:35:44;;;;;;;25.03;5.63;;;21.30;99.90;;;;;;5012862;28;20425;-69
2022/08/19 12:38:10;;;;;;;13.87;4.80;;;21.40;99.90;;;;;;5012618;28;20450;-69
2022/08/19 12:40:36;;;;;;;9.40;4.10;;;21.60;99.90;;;;;;5012439;28;20410;-69
2022/08/19 12:43:01;;;;;;;7.80;5.10;;;21.80;99.90;;;;;;5012231;28;20725;-68
2022/08/19 12:45:28;;;;;;;7.07;4.70;;;21.90;99.90;;;;;;5012612;28;20179;-69
2022/08/19 12:47:53;;;;;;;11.47;4.90;;;22.00;99.90;;;;;;5012652;28;20648;-69
2022/08/19 12:50:21;;;;;;;13.50;4.43;;;22.10;99.90;;;;;;5012581;28;20457;-69
2022/08/19 12:52:47;;;;;;;12.30;5.23;;;22.10;99.90;;;;;;5011344;28;20171;-69
2022/08/19 12:55:13;;;;;;;6.47;4.27;;;22.00;99.90;;;;;;5012621;28;21068;-68